sensor_id;sensor_type;location;lat;lon;timestamp;P1;durP1;ratioP1;P2;durP2;ratioP2
42124;SDS011;27787;44.594;11.046;2023-12-20T00:00:36;28.67;;;13.32;;
42124;SDS011;27787;44.594;11.046;2023-12-20T00:03:21;23.42;;;11.00;;
42124;SDS011;27787;44.594;11.046;2023-12-20T00:06:05;35.63;;;13.95;;
42124;SDS011;27787;44.594;11.046;2023-12-20T00:08:49;28.33;;;12.55;;
42124;SDS011;27787;44.594;11.046;2023-12-20T00:11:33;27.08;;;12.15;;
42124;SDS011;27787;44.594;11.046;2023-12-20T00:14:17;24.88;;;11.77;;
42124;SDS011;27787;44.594;11.046;2023-12-20T00:17:01;30.63;;;11.45;;
42124;SDS011;27787;44.594;11.046;2023-12-20T00:19:45;33.40;;;12.45;;
42124;SDS011;27787;44.594;11.046;2023-12-20T00:22:30;22.98;;;10.50;;
42124;SDS011;27787;44.594;11.046;2023-12-20T00:25:14;22.52;;;11.25;;
42124;SDS011;27787;44.594;11.046;2023-12-20T00:27:58;31.10;;;11.57;;
42124;SDS011;27787;44.594;11.046;2023-12-20T00:30:42;27.40;;;12.07;;
42124;SDS011;27787;44.594;11.046;2023-12-20T00:33:27;27.83;;;12.27;;
42124;SDS011;27787;44.594;11.046;2023-12-20T00:36:11;24.98;;;11.55;;
42124;SDS011;27787;44.594;11.046;2023-12-20T00:38:55;26.60;;;11.00;;
42124;SDS011;27787;44.594;11.046;2023-12-20T00:41:39;27.13;;;12.15;;
42124;SDS011;27787;44.594;11.046;2023-12-20T00:44:23;26.73;;;12.43;;
42124;SDS011;27787;44.594;11.046;2023-12-20T00:47:08;26.25;;;12.00;;
42124;SDS011;27787;44.594;11.046;2023-12-20T00:49:52;26.50;;;11.82;;
42124;SDS011;27787;44.594;11.046;2023-12-20T00:52:36;25.92;;;11.75;;
42124;SDS011;27787;44.594;11.046;2023-12-20T00:55:20;22.63;;;10.57;;
42124;SDS011;27787;44.594;11.046;2023-12-20T00:58:04;27.70;;;12.10;;
42124;SDS011;27787;44.594;11.046;2023-12-20T01:00:48;23.65;;;12.27;;
42124;SDS011;27787;44.594;11.046;2023-12-20T01:03:32;29.88;;;11.88;;
42124;SDS011;27787;44.594;11.046;2023-12-20T01:06:17;23.63;;;10.88;;
42124;SDS011;27787;44.594;11.046;2023-12-20T01:09:01;27.00;;;11.70;;
42124;SDS011;27787;44.594;11.046;2023-12-20T01:11:45;22.83;;;10.60;;
42124;SDS011;27787;44.594;11.046;2023-12-20T01:14:30;26.60;;;11.20;;
42124;SDS011;27787;44.594;11.046;2023-12-20T01:17:14;24.85;;;11.13;;
42124;SDS011;27787;44.594;11.046;2023-12-20T01:19:58;22.27;;;10.30;;
42124;SDS011;27787;44.594;11.046;2023-12-20T01:22:41;18.35;;;9.15;;
42124;SDS011;27787;44.594;11.046;2023-12-20T01:25:26;25.02;;;10.43;;
42124;SDS011;27787;44.594;11.046;2023-12-20T01:28:11;16.08;;;7.43;;
42124;SDS011;27787;44.594;11.046;2023-12-20T01:30:55;28.58;;;10.27;;
42124;SDS011;27787;44.594;11.046;2023-12-20T01:33:39;17.10;;;8.38;;
42124;SDS011;27787;44.594;11.046;2023-12-20T01:36:23;26.50;;;9.32;;
42124;SDS011;27787;44.594;11.046;2023-12-20T01:39:07;24.42;;;9.60;;
42124;SDS011;27787;44.594;11.046;2023-12-20T01:41:51;15.52;;;7.93;;
42124;SDS011;27787;44.594;11.046;2023-12-20T01:44:36;17.38;;;7.47;;
42124;SDS011;27787;44.594;11.046;2023-12-20T01:47:20;19.33;;;7.90;;
42124;SDS011;27787;44.594;11.046;2023-12-20T01:50:05;23.95;;;8.88;;
42124;SDS011;27787;44.594;11.046;2023-12-20T01:52:51;25.63;;;11.95;;
42124;SDS011;27787;44.594;11.046;2023-12-20T01:55:40;21.00;;;11.02;;
42124;SDS011;27787;44.594;11.046;2023-12-20T01:58:25;23.25;;;10.48;;
42124;SDS011;27787;44.594;11.046;2023-12-20T02:01:11;23.55;;;10.60;;
42124;SDS011;27787;44.594;11.046;2023-12-20T02:03:55;18.97;;;10.43;;
42124;SDS011;27787;44.594;11.046;2023-12-20T02:06:40;18.02;;;9.57;;
42124;SDS011;27787;44.594;11.046;2023-12-20T02:09:24;21.23;;;9.20;;
42124;SDS011;27787;44.594;11.046;2023-12-20T02:12:08;19.23;;;8.32;;
42124;SDS011;27787;44.594;11.046;2023-12-20T02:14:53;19.43;;;8.97;;
42124;SDS011;27787;44.594;11.046;2023-12-20T02:17:38;21.23;;;9.88;;
42124;SDS011;27787;44.594;11.046;2023-12-20T02:20:23;21.63;;;10.05;;
42124;SDS011;27787;44.594;11.046;2023-12-20T02:23:07;23.48;;;9.43;;
42124;SDS011;27787;44.594;11.046;2023-12-20T02:25:51;19.90;;;8.30;;
42124;SDS011;27787;44.594;11.046;2023-12-20T02:28:35;17.45;;;8.23;;
42124;SDS011;27787;44.594;11.046;2023-12-20T02:31:23;22.05;;;9.30;;
42124;SDS011;27787;44.594;11.046;2023-12-20T02:34:07;20.35;;;10.07;;
42124;SDS011;27787;44.594;11.046;2023-12-20T02:36:51;21.08;;;8.68;;
42124;SDS011;27787;44.594;11.046;2023-12-20T02:39:35;18.30;;;8.73;;
42124;SDS011;27787;44.594;11.046;2023-12-20T02:42:19;17.33;;;7.88;;
42124;SDS011;27787;44.594;11.046;2023-12-20T02:45:03;16.08;;;8.73;;
42124;SDS011;27787;44.594;11.046;2023-12-20T02:47:48;17.38;;;8.40;;
42124;SDS011;27787;44.594;11.046;2023-12-20T02:50:32;18.60;;;9.05;;
42124;SDS011;27787;44.594;11.046;2023-12-20T02:53:16;16.00;;;7.43;;
42124;SDS011;27787;44.594;11.046;2023-12-20T02:56:00;15.48;;;8.63;;
42124;SDS011;27787;44.594;11.046;2023-12-20T02:58:44;18.70;;;8.30;;
42124;SDS011;27787;44.594;11.046;2023-12-20T03:01:29;28.30;;;10.05;;
42124;SDS011;27787;44.594;11.046;2023-12-20T03:04:13;23.92;;;9.70;;
42124;SDS011;27787;44.594;11.046;2023-12-20T03:06:57;19.95;;;9.77;;
42124;SDS011;27787;44.594;11.046;2023-12-20T03:09:41;23.85;;;10.20;;
42124;SDS011;27787;44.594;11.046;2023-12-20T03:12:26;21.42;;;10.02;;
42124;SDS011;27787;44.594;11.046;2023-12-20T03:15:10;21.00;;;10.63;;
42124;SDS011;27787;44.594;11.046;2023-12-20T03:17:54;19.80;;;9.68;;
42124;SDS011;27787;44.594;11.046;2023-12-20T03:20:39;25.25;;;9.93;;
42124;SDS011;27787;44.594;11.046;2023-12-20T03:26:10;20.75;;;8.40;;
42124;SDS011;27787;44.594;11.046;2023-12-20T03:28:54;19.65;;;9.00;;
42124;SDS011;27787;44.594;11.046;2023-12-20T03:31:38;20.25;;;9.07;;
42124;SDS011;27787;44.594;11.046;2023-12-20T03:34:22;19.40;;;9.43;;
42124;SDS011;27787;44.594;11.046;2023-12-20T03:37:05;24.85;;;10.15;;
42124;SDS011;27787;44.594;11.046;2023-12-20T03:39:50;24.65;;;9.40;;
42124;SDS011;27787;44.594;11.046;2023-12-20T03:42:34;19.08;;;8.73;;
42124;SDS011;27787;44.594;11.046;2023-12-20T03:45:18;20.15;;;9.30;;
42124;SDS011;27787;44.594;11.046;2023-12-20T03:48:02;20.05;;;8.48;;
42124;SDS011;27787;44.594;11.046;2023-12-20T03:50:46;15.98;;;8.18;;
42124;SDS011;27787;44.594;11.046;2023-12-20T03:53:31;22.95;;;9.43;;
42124;SDS011;27787;44.594;11.046;2023-12-20T03:56:15;12.95;;;7.35;;
42124;SDS011;27787;44.594;11.046;2023-12-20T03:58:59;16.65;;;7.90;;
42124;SDS011;27787;44.594;11.046;2023-12-20T04:01:43;15.48;;;6.72;;
42124;SDS011;27787;44.594;11.046;2023-12-20T04:04:31;13.40;;;7.47;;
42124;SDS011;27787;44.594;11.046;2023-12-20T04:07:15;12.35;;;6.07;;
42124;SDS011;27787;44.594;11.046;2023-12-20T04:09:58;12.68;;;6.30;;
42124;SDS011;27787;44.594;11.046;2023-12-20T04:12:43;15.70;;;6.22;;
42124;SDS011;27787;44.594;11.046;2023-12-20T04:15:27;18.45;;;6.40;;
42124;SDS011;27787;44.594;11.046;2023-12-20T04:18:11;15.32;;;6.63;;
42124;SDS011;27787;44.594;11.046;2023-12-20T04:20:55;14.95;;;6.35;;
42124;SDS011;27787;44.594;11.046;2023-12-20T04:23:39;11.90;;;6.18;;
42124;SDS011;27787;44.594;11.046;2023-12-20T04:26:23;18.73;;;6.45;;
42124;SDS011;27787;44.594;11.046;2023-12-20T04:29:07;11.68;;;6.10;;
42124;SDS011;27787;44.594;11.046;2023-12-20T04:31:51;15.35;;;6.45;;
42124;SDS011;27787;44.594;11.046;2023-12-20T04:34:35;10.88;;;5.68;;
42124;SDS011;27787;44.594;11.046;2023-12-20T04:37:20;12.50;;;6.15;;
42124;SDS011;27787;44.594;11.046;2023-12-20T04:40:04;13.75;;;5.72;;
42124;SDS011;27787;44.594;11.046;2023-12-20T04:42:49;14.02;;;5.82;;
42124;SDS011;27787;44.594;11.046;2023-12-20T04:45:33;12.38;;;5.97;;
42124;SDS011;27787;44.594;11.046;2023-12-20T04:48:17;12.05;;;5.47;;
42124;SDS011;27787;44.594;11.046;2023-12-20T04:51:01;21.85;;;8.30;;
42124;SDS011;27787;44.594;11.046;2023-12-20T04:53:45;16.48;;;6.55;;
42124;SDS011;27787;44.594;11.046;2023-12-20T04:56:30;12.88;;;5.80;;
42124;SDS011;27787;44.594;11.046;2023-12-20T04:59:14;10.95;;;5.55;;
42124;SDS011;27787;44.594;11.046;2023-12-20T05:01:58;12.73;;;5.70;;
42124;SDS011;27787;44.594;11.046;2023-12-20T05:04:42;13.73;;;5.65;;
42124;SDS011;27787;44.594;11.046;2023-12-20T05:07:27;12.10;;;5.78;;
42124;SDS011;27787;44.594;11.046;2023-12-20T05:10:11;10.40;;;5.20;;
42124;SDS011;27787;44.594;11.046;2023-12-20T05:12:55;13.73;;;5.93;;
42124;SDS011;27787;44.594;11.046;2023-12-20T05:15:39;10.02;;;4.85;;
42124;SDS011;27787;44.594;11.046;2023-12-20T05:18:24;12.73;;;5.10;;
42124;SDS011;27787;44.594;11.046;2023-12-20T05:21:08;11.65;;;6.03;;
42124;SDS011;27787;44.594;11.046;2023-12-20T05:23:52;10.75;;;5.63;;
42124;SDS011;27787;44.594;11.046;2023-12-20T05:26:36;11.60;;;5.03;;
42124;SDS011;27787;44.594;11.046;2023-12-20T05:29:20;11.65;;;5.15;;
42124;SDS011;27787;44.594;11.046;2023-12-20T05:32:05;10.52;;;5.63;;
42124;SDS011;27787;44.594;11.046;2023-12-20T05:34:49;13.90;;;6.38;;
42124;SDS011;27787;44.594;11.046;2023-12-20T05:37:33;23.33;;;5.60;;
42124;SDS011;27787;44.594;11.046;2023-12-20T05:40:17;11.88;;;5.80;;
42124;SDS011;27787;44.594;11.046;2023-12-20T05:43:01;15.10;;;5.65;;
42124;SDS011;27787;44.594;11.046;2023-12-20T05:45:46;10.80;;;5.85;;
42124;SDS011;27787;44.594;11.046;2023-12-20T05:48:30;10.77;;;5.20;;
42124;SDS011;27787;44.594;11.046;2023-12-20T05:51:14;11.45;;;5.68;;
42124;SDS011;27787;44.594;11.046;2023-12-20T05:53:58;16.55;;;6.63;;
42124;SDS011;27787;44.594;11.046;2023-12-20T05:56:43;10.73;;;5.00;;
42124;SDS011;27787;44.594;11.046;2023-12-20T05:59:27;14.48;;;6.53;;
42124;SDS011;27787;44.594;11.046;2023-12-20T06:02:11;20.45;;;6.68;;
42124;SDS011;27787;44.594;11.046;2023-12-20T06:04:54;12.90;;;6.13;;
42124;SDS011;27787;44.594;11.046;2023-12-20T06:07:38;16.50;;;6.95;;
42124;SDS011;27787;44.594;11.046;2023-12-20T06:10:22;11.65;;;5.45;;
42124;SDS011;27787;44.594;11.046;2023-12-20T06:13:07;14.93;;;5.45;;
42124;SDS011;27787;44.594;11.046;2023-12-20T06:15:51;17.10;;;6.20;;
42124;SDS011;27787;44.594;11.046;2023-12-20T06:18:36;12.30;;;6.43;;
42124;SDS011;27787;44.594;11.046;2023-12-20T06:21:20;12.55;;;5.68;;
42124;SDS011;27787;44.594;11.046;2023-12-20T06:24:05;16.40;;;6.57;;
42124;SDS011;27787;44.594;11.046;2023-12-20T06:26:49;14.70;;;7.05;;
42124;SDS011;27787;44.594;11.046;2023-12-20T06:29:33;23.30;;;7.25;;
42124;SDS011;27787;44.594;11.046;2023-12-20T06:32:18;19.38;;;7.05;;
42124;SDS011;27787;44.594;11.046;2023-12-20T06:35:02;13.73;;;6.47;;
42124;SDS011;27787;44.594;11.046;2023-12-20T06:37:48;13.15;;;6.25;;
42124;SDS011;27787;44.594;11.046;2023-12-20T06:40:32;16.25;;;6.05;;
42124;SDS011;27787;44.594;11.046;2023-12-20T06:43:16;13.13;;;5.97;;
42124;SDS011;27787;44.594;11.046;2023-12-20T06:46:00;13.43;;;5.22;;
42124;SDS011;27787;44.594;11.046;2023-12-20T06:48:44;11.55;;;5.43;;
42124;SDS011;27787;44.594;11.046;2023-12-20T06:51:28;14.57;;;5.65;;
42124;SDS011;27787;44.594;11.046;2023-12-20T06:54:12;13.25;;;5.25;;
42124;SDS011;27787;44.594;11.046;2023-12-20T06:56:56;12.07;;;5.18;;
42124;SDS011;27787;44.594;11.046;2023-12-20T06:59:40;13.35;;;5.75;;
42124;SDS011;27787;44.594;11.046;2023-12-20T07:02:25;10.98;;;5.88;;
42124;SDS011;27787;44.594;11.046;2023-12-20T07:05:08;16.25;;;6.20;;
42124;SDS011;27787;44.594;11.046;2023-12-20T07:07:53;16.85;;;6.28;;
42124;SDS011;27787;44.594;11.046;2023-12-20T07:10:37;17.67;;;6.90;;
42124;SDS011;27787;44.594;11.046;2023-12-20T07:13:21;16.67;;;6.75;;
42124;SDS011;27787;44.594;11.046;2023-12-20T07:16:06;13.63;;;6.47;;
42124;SDS011;27787;44.594;11.046;2023-12-20T07:18:50;13.48;;;5.63;;
42124;SDS011;27787;44.594;11.046;2023-12-20T07:21:36;15.98;;;6.18;;
42124;SDS011;27787;44.594;11.046;2023-12-20T07:24:20;14.40;;;6.85;;
42124;SDS011;27787;44.594;11.046;2023-12-20T07:27:04;15.25;;;6.88;;
42124;SDS011;27787;44.594;11.046;2023-12-20T07:29:48;16.50;;;7.50;;
42124;SDS011;27787;44.594;11.046;2023-12-20T07:32:32;15.50;;;7.18;;
42124;SDS011;27787;44.594;11.046;2023-12-20T07:35:16;16.70;;;6.35;;
42124;SDS011;27787;44.594;11.046;2023-12-20T07:38:00;14.98;;;6.53;;
42124;SDS011;27787;44.594;11.046;2023-12-20T07:40:44;14.35;;;7.57;;
42124;SDS011;27787;44.594;11.046;2023-12-20T07:43:28;18.05;;;7.03;;
42124;SDS011;27787;44.594;11.046;2023-12-20T07:46:13;20.77;;;6.68;;
42124;SDS011;27787;44.594;11.046;2023-12-20T07:48:57;15.65;;;7.57;;
42124;SDS011;27787;44.594;11.046;2023-12-20T07:51:41;15.90;;;7.07;;
42124;SDS011;27787;44.594;11.046;2023-12-20T07:54:24;15.30;;;7.38;;
42124;SDS011;27787;44.594;11.046;2023-12-20T07:57:09;19.20;;;7.15;;
42124;SDS011;27787;44.594;11.046;2023-12-20T07:59:54;21.00;;;6.13;;
42124;SDS011;27787;44.594;11.046;2023-12-20T08:02:39;19.58;;;6.78;;
42124;SDS011;27787;44.594;11.046;2023-12-20T08:05:23;14.23;;;5.93;;
42124;SDS011;27787;44.594;11.046;2023-12-20T08:08:07;12.00;;;5.70;;
42124;SDS011;27787;44.594;11.046;2023-12-20T08:10:51;12.88;;;6.45;;
42124;SDS011;27787;44.594;11.046;2023-12-20T08:13:35;15.82;;;7.25;;
42124;SDS011;27787;44.594;11.046;2023-12-20T08:16:19;18.65;;;6.55;;
42124;SDS011;27787;44.594;11.046;2023-12-20T08:19:03;30.65;;;8.68;;
42124;SDS011;27787;44.594;11.046;2023-12-20T08:21:47;16.80;;;7.00;;
42124;SDS011;27787;44.594;11.046;2023-12-20T08:24:31;20.17;;;7.82;;
42124;SDS011;27787;44.594;11.046;2023-12-20T08:27:15;17.98;;;7.15;;
42124;SDS011;27787;44.594;11.046;2023-12-20T08:29:59;16.85;;;8.00;;
42124;SDS011;27787;44.594;11.046;2023-12-20T08:32:43;19.67;;;10.85;;
42124;SDS011;27787;44.594;11.046;2023-12-20T08:35:27;15.68;;;8.05;;
42124;SDS011;27787;44.594;11.046;2023-12-20T08:38:11;26.92;;;7.80;;
42124;SDS011;27787;44.594;11.046;2023-12-20T08:40:55;18.63;;;7.90;;
42124;SDS011;27787;44.594;11.046;2023-12-20T08:43:39;14.93;;;7.60;;
42124;SDS011;27787;44.594;11.046;2023-12-20T08:46:26;18.45;;;7.07;;
42124;SDS011;27787;44.594;11.046;2023-12-20T08:49:11;17.42;;;7.18;;
42124;SDS011;27787;44.594;11.046;2023-12-20T08:51:55;18.33;;;6.82;;
42124;SDS011;27787;44.594;11.046;2023-12-20T08:54:39;17.02;;;5.70;;
42124;SDS011;27787;44.594;11.046;2023-12-20T08:57:23;15.25;;;6.55;;
42124;SDS011;27787;44.594;11.046;2023-12-20T09:00:08;18.02;;;7.95;;
42124;SDS011;27787;44.594;11.046;2023-12-20T09:02:52;17.58;;;7.57;;
42124;SDS011;27787;44.594;11.046;2023-12-20T09:05:38;19.92;;;7.95;;
42124;SDS011;27787;44.594;11.046;2023-12-20T09:08:22;15.88;;;7.50;;
42124;SDS011;27787;44.594;11.046;2023-12-20T09:11:06;17.20;;;7.70;;
42124;SDS011;27787;44.594;11.046;2023-12-20T09:13:51;21.92;;;8.27;;
42124;SDS011;27787;44.594;11.046;2023-12-20T09:16:35;18.02;;;7.25;;
42124;SDS011;27787;44.594;11.046;2023-12-20T09:19:19;20.23;;;7.22;;
42124;SDS011;27787;44.594;11.046;2023-12-20T09:22:04;18.17;;;7.88;;
42124;SDS011;27787;44.594;11.046;2023-12-20T09:24:48;23.00;;;7.68;;
42124;SDS011;27787;44.594;11.046;2023-12-20T09:27:32;12.45;;;7.03;;
42124;SDS011;27787;44.594;11.046;2023-12-20T09:30:16;13.65;;;7.18;;
42124;SDS011;27787;44.594;11.046;2023-12-20T09:33:00;21.98;;;7.88;;
42124;SDS011;27787;44.594;11.046;2023-12-20T09:35:44;30.30;;;8.20;;
42124;SDS011;27787;44.594;11.046;2023-12-20T09:38:28;17.13;;;7.90;;
42124;SDS011;27787;44.594;11.046;2023-12-20T09:41:13;16.27;;;8.25;;
42124;SDS011;27787;44.594;11.046;2023-12-20T09:43:57;22.88;;;9.55;;
42124;SDS011;27787;44.594;11.046;2023-12-20T09:46:48;18.77;;;8.43;;
42124;SDS011;27787;44.594;11.046;2023-12-20T09:49:34;20.80;;;8.65;;
42124;SDS011;27787;44.594;11.046;2023-12-20T09:52:20;16.45;;;8.25;;
42124;SDS011;27787;44.594;11.046;2023-12-20T09:57:51;15.35;;;8.40;;
42124;SDS011;27787;44.594;11.046;2023-12-20T10:00:35;19.73;;;8.70;;
42124;SDS011;27787;44.594;11.046;2023-12-20T10:03:22;17.80;;;8.98;;
42124;SDS011;27787;44.594;11.046;2023-12-20T10:06:09;17.35;;;8.88;;
42124;SDS011;27787;44.594;11.046;2023-12-20T10:08:54;18.88;;;9.80;;
42124;SDS011;27787;44.594;11.046;2023-12-20T10:11:38;17.80;;;9.05;;
42124;SDS011;27787;44.594;11.046;2023-12-20T10:14:23;19.30;;;8.75;;
42124;SDS011;27787;44.594;11.046;2023-12-20T10:17:07;19.25;;;9.50;;
42124;SDS011;27787;44.594;11.046;2023-12-20T10:19:52;23.55;;;9.70;;
42124;SDS011;27787;44.594;11.046;2023-12-20T10:22:36;24.02;;;9.70;;
42124;SDS011;27787;44.594;11.046;2023-12-20T10:25:21;18.73;;;9.63;;
42124;SDS011;27787;44.594;11.046;2023-12-20T10:28:09;23.80;;;10.52;;
42124;SDS011;27787;44.594;11.046;2023-12-20T10:30:57;20.45;;;10.52;;
42124;SDS011;27787;44.594;11.046;2023-12-20T10:33:41;27.80;;;10.98;;
42124;SDS011;27787;44.594;11.046;2023-12-20T10:36:26;27.52;;;10.38;;
42124;SDS011;27787;44.594;11.046;2023-12-20T10:39:10;26.75;;;11.00;;
42124;SDS011;27787;44.594;11.046;2023-12-20T10:41:57;22.67;;;10.32;;
42124;SDS011;27787;44.594;11.046;2023-12-20T10:44:42;27.60;;;10.70;;
42124;SDS011;27787;44.594;11.046;2023-12-20T10:47:26;21.73;;;10.35;;
42124;SDS011;27787;44.594;11.046;2023-12-20T10:50:12;21.30;;;10.77;;
42124;SDS011;27787;44.594;11.046;2023-12-20T10:52:56;22.08;;;11.13;;
42124;SDS011;27787;44.594;11.046;2023-12-20T10:55:41;18.17;;;10.40;;
42124;SDS011;27787;44.594;11.046;2023-12-20T10:58:27;24.35;;;11.63;;
42124;SDS011;27787;44.594;11.046;2023-12-20T11:01:13;23.15;;;11.23;;
42124;SDS011;27787;44.594;11.046;2023-12-20T11:03:58;24.92;;;12.15;;
42124;SDS011;27787;44.594;11.046;2023-12-20T11:06:54;24.15;;;12.45;;
42124;SDS011;27787;44.594;11.046;2023-12-20T11:09:57;21.02;;;10.98;;
42124;SDS011;27787;44.594;11.046;2023-12-20T11:12:54;26.88;;;11.80;;
42124;SDS011;27787;44.594;11.046;2023-12-20T11:16:13;25.85;;;12.00;;
42124;SDS011;27787;44.594;11.046;2023-12-20T11:18:59;28.17;;;12.55;;
42124;SDS011;27787;44.594;11.046;2023-12-20T11:21:49;25.98;;;12.73;;
42124;SDS011;27787;44.594;11.046;2023-12-20T11:24:34;28.95;;;13.15;;
42124;SDS011;27787;44.594;11.046;2023-12-20T11:27:21;24.25;;;12.75;;
42124;SDS011;27787;44.594;11.046;2023-12-20T11:30:07;27.77;;;13.75;;
42124;SDS011;27787;44.594;11.046;2023-12-20T11:32:53;26.45;;;12.57;;
42124;SDS011;27787;44.594;11.046;2023-12-20T11:35:39;26.13;;;11.80;;
42124;SDS011;27787;44.594;11.046;2023-12-20T11:38:23;27.13;;;12.45;;
42124;SDS011;27787;44.594;11.046;2023-12-20T11:41:08;23.60;;;11.32;;
42124;SDS011;27787;44.594;11.046;2023-12-20T11:43:54;22.70;;;12.35;;
42124;SDS011;27787;44.594;11.046;2023-12-20T11:46:40;25.17;;;12.48;;
42124;SDS011;27787;44.594;11.046;2023-12-20T11:49:24;27.50;;;12.20;;
42124;SDS011;27787;44.594;11.046;2023-12-20T11:52:14;28.20;;;11.20;;
42124;SDS011;27787;44.594;11.046;2023-12-20T11:54:59;28.02;;;12.32;;
42124;SDS011;27787;44.594;11.046;2023-12-20T11:57:43;26.02;;;12.43;;
42124;SDS011;27787;44.594;11.046;2023-12-20T12:00:28;34.63;;;12.50;;
42124;SDS011;27787;44.594;11.046;2023-12-20T12:03:14;25.38;;;11.43;;
42124;SDS011;27787;44.594;11.046;2023-12-20T12:05:59;32.60;;;12.15;;
42124;SDS011;27787;44.594;11.046;2023-12-20T12:08:44;30.17;;;13.60;;
42124;SDS011;27787;44.594;11.046;2023-12-20T12:11:28;22.45;;;11.82;;
42124;SDS011;27787;44.594;11.046;2023-12-20T12:14:13;25.90;;;12.20;;
42124;SDS011;27787;44.594;11.046;2023-12-20T12:16:57;24.87;;;12.03;;
42124;SDS011;27787;44.594;11.046;2023-12-20T12:19:41;28.75;;;12.32;;
42124;SDS011;27787;44.594;11.046;2023-12-20T12:22:26;27.63;;;12.60;;
42124;SDS011;27787;44.594;11.046;2023-12-20T12:25:12;27.88;;;12.05;;
42124;SDS011;27787;44.594;11.046;2023-12-20T12:27:58;31.52;;;13.38;;
42124;SDS011;27787;44.594;11.046;2023-12-20T12:30:44;28.20;;;12.70;;
42124;SDS011;27787;44.594;11.046;2023-12-20T12:33:40;23.50;;;12.73;;
42124;SDS011;27787;44.594;11.046;2023-12-20T12:36:24;30.17;;;12.95;;
42124;SDS011;27787;44.594;11.046;2023-12-20T12:39:08;27.80;;;14.35;;
42124;SDS011;27787;44.594;11.046;2023-12-20T12:41:56;28.42;;;12.73;;
42124;SDS011;27787;44.594;11.046;2023-12-20T12:44:41;26.10;;;13.52;;
42124;SDS011;27787;44.594;11.046;2023-12-20T12:47:24;29.63;;;13.93;;
42124;SDS011;27787;44.594;11.046;2023-12-20T12:50:09;27.05;;;14.02;;
42124;SDS011;27787;44.594;11.046;2023-12-20T12:52:53;28.92;;;13.73;;
42124;SDS011;27787;44.594;11.046;2023-12-20T12:55:37;31.98;;;13.50;;
42124;SDS011;27787;44.594;11.046;2023-12-20T12:58:21;29.92;;;13.48;;
42124;SDS011;27787;44.594;11.046;2023-12-20T13:01:06;30.63;;;13.85;;
42124;SDS011;27787;44.594;11.046;2023-12-20T13:03:49;35.28;;;14.15;;
42124;SDS011;27787;44.594;11.046;2023-12-20T13:06:33;34.25;;;13.40;;
42124;SDS011;27787;44.594;11.046;2023-12-20T13:09:17;33.83;;;14.38;;
42124;SDS011;27787;44.594;11.046;2023-12-20T13:12:03;26.27;;;14.55;;
42124;SDS011;27787;44.594;11.046;2023-12-20T13:14:48;33.15;;;13.38;;
42124;SDS011;27787;44.594;11.046;2023-12-20T13:17:32;27.77;;;14.25;;
42124;SDS011;27787;44.594;11.046;2023-12-20T13:20:16;30.08;;;15.02;;
42124;SDS011;27787;44.594;11.046;2023-12-20T13:23:00;28.38;;;14.85;;
42124;SDS011;27787;44.594;11.046;2023-12-20T13:25:44;31.60;;;14.88;;
42124;SDS011;27787;44.594;11.046;2023-12-20T13:28:29;38.17;;;14.35;;
42124;SDS011;27787;44.594;11.046;2023-12-20T13:31:13;25.08;;;13.45;;
42124;SDS011;27787;44.594;11.046;2023-12-20T13:33:57;27.17;;;14.43;;
42124;SDS011;27787;44.594;11.046;2023-12-20T13:36:41;28.58;;;14.25;;
42124;SDS011;27787;44.594;11.046;2023-12-20T13:39:26;29.95;;;14.57;;
42124;SDS011;27787;44.594;11.046;2023-12-20T13:42:10;29.08;;;14.32;;
42124;SDS011;27787;44.594;11.046;2023-12-20T13:44:54;31.02;;;15.15;;
42124;SDS011;27787;44.594;11.046;2023-12-20T13:47:38;34.05;;;14.75;;
42124;SDS011;27787;44.594;11.046;2023-12-20T13:50:22;28.00;;;13.20;;
42124;SDS011;27787;44.594;11.046;2023-12-20T13:53:06;32.47;;;14.27;;
42124;SDS011;27787;44.594;11.046;2023-12-20T13:55:50;29.42;;;14.43;;
42124;SDS011;27787;44.594;11.046;2023-12-20T13:58:35;32.90;;;14.95;;
42124;SDS011;27787;44.594;11.046;2023-12-20T14:01:20;36.90;;;14.23;;
42124;SDS011;27787;44.594;11.046;2023-12-20T14:04:04;29.65;;;14.05;;
42124;SDS011;27787;44.594;11.046;2023-12-20T14:06:48;31.13;;;13.48;;
42124;SDS011;27787;44.594;11.046;2023-12-20T14:09:33;31.05;;;13.50;;
42124;SDS011;27787;44.594;11.046;2023-12-20T14:12:17;25.98;;;13.70;;
42124;SDS011;27787;44.594;11.046;2023-12-20T14:15:02;35.80;;;13.95;;
42124;SDS011;27787;44.594;11.046;2023-12-20T14:17:46;31.77;;;14.35;;
42124;SDS011;27787;44.594;11.046;2023-12-20T14:20:31;30.60;;;14.00;;
42124;SDS011;27787;44.594;11.046;2023-12-20T14:23:16;32.67;;;13.32;;
42124;SDS011;27787;44.594;11.046;2023-12-20T14:26:00;26.73;;;13.60;;
42124;SDS011;27787;44.594;11.046;2023-12-20T14:28:45;31.58;;;13.82;;
42124;SDS011;27787;44.594;11.046;2023-12-20T14:31:29;35.42;;;14.93;;
42124;SDS011;27787;44.594;11.046;2023-12-20T14:34:13;34.97;;;14.23;;
42124;SDS011;27787;44.594;11.046;2023-12-20T14:36:57;28.52;;;14.50;;
42124;SDS011;27787;44.594;11.046;2023-12-20T14:39:41;30.70;;;14.93;;
42124;SDS011;27787;44.594;11.046;2023-12-20T14:42:25;39.42;;;14.57;;
42124;SDS011;27787;44.594;11.046;2023-12-20T14:45:10;36.17;;;15.73;;
42124;SDS011;27787;44.594;11.046;2023-12-20T14:47:54;51.47;;;16.50;;
42124;SDS011;27787;44.594;11.046;2023-12-20T14:50:39;44.40;;;17.27;;
42124;SDS011;27787;44.594;11.046;2023-12-20T14:53:24;37.35;;;17.00;;
42124;SDS011;27787;44.594;11.046;2023-12-20T14:56:10;30.48;;;15.50;;
42124;SDS011;27787;44.594;11.046;2023-12-20T14:58:54;32.45;;;14.50;;
42124;SDS011;27787;44.594;11.046;2023-12-20T15:01:37;35.28;;;14.85;;
42124;SDS011;27787;44.594;11.046;2023-12-20T15:04:24;37.92;;;14.05;;
42124;SDS011;27787;44.594;11.046;2023-12-20T15:07:12;39.45;;;15.10;;
42124;SDS011;27787;44.594;11.046;2023-12-20T15:09:56;35.65;;;15.10;;
42124;SDS011;27787;44.594;11.046;2023-12-20T15:12:40;35.88;;;16.75;;
42124;SDS011;27787;44.594;11.046;2023-12-20T15:15:24;37.92;;;16.13;;
42124;SDS011;27787;44.594;11.046;2023-12-20T15:18:08;39.08;;;16.27;;
42124;SDS011;27787;44.594;11.046;2023-12-20T15:20:52;36.10;;;16.00;;
42124;SDS011;27787;44.594;11.046;2023-12-20T15:23:36;43.28;;;16.50;;
42124;SDS011;27787;44.594;11.046;2023-12-20T15:26:21;55.17;;;19.98;;
42124;SDS011;27787;44.594;11.046;2023-12-20T15:29:05;45.72;;;20.63;;
42124;SDS011;27787;44.594;11.046;2023-12-20T15:31:50;38.50;;;18.47;;
42124;SDS011;27787;44.594;11.046;2023-12-20T15:34:34;41.17;;;17.70;;
42124;SDS011;27787;44.594;11.046;2023-12-20T15:37:18;36.55;;;16.63;;
42124;SDS011;27787;44.594;11.046;2023-12-20T15:40:03;35.42;;;16.83;;
42124;SDS011;27787;44.594;11.046;2023-12-20T15:42:47;32.92;;;16.52;;
42124;SDS011;27787;44.594;11.046;2023-12-20T15:45:31;37.92;;;15.80;;
42124;SDS011;27787;44.594;11.046;2023-12-20T15:48:15;34.45;;;17.45;;
42124;SDS011;27787;44.594;11.046;2023-12-20T15:51:05;36.00;;;17.92;;
42124;SDS011;27787;44.594;11.046;2023-12-20T15:53:50;37.47;;;17.00;;
42124;SDS011;27787;44.594;11.046;2023-12-20T15:56:34;30.52;;;15.85;;
42124;SDS011;27787;44.594;11.046;2023-12-20T15:59:20;36.30;;;18.13;;
42124;SDS011;27787;44.594;11.046;2023-12-20T16:02:03;34.95;;;17.55;;